Latest Weather Observations for Mangrove Mountain

IDN60901

Issued at 11:51 pm EST Sunday 30 August 2015 (issued every 10 minutes, with the page automatically refreshed every 10 minutes)

About weather observations | Map of Sydney area stations | Latest observations for Sydney area | Other Formats
Station Details ID: 061375 Name: MANGROVE MOUNTAIN AWS Lat: -33.29 Lon: 151.21 Height: 305.0 m
Data from the previous 72 hours. | See also: Recent months at Mangrove Mountain
Date/Time
EST
Tmp

°C
App
Tmp
°C
Dew
Point
°C
Rel
Hum
%
Delta-T

°C
Wind Press
QNH
hPa
Press
MSL
hPa
Rain
since
9 am
mm
Dir
 
Spd
km/h
Gust
km/h
Spd
kts
Gust
kts
30/11:30pm 8.3 6.5 7.1 92 0.6 WNW 6 6 3 3 - - 0.0
30/11:00pm 7.7 5.9 7.3 97 0.2 WNW 6 9 3 5 - - 0.0
30/10:30pm 6.6 4.9 5.7 94 0.4 WNW 4 6 2 3 - - 0.0
30/10:00pm 7.2 5.5 6.0 92 0.6 WSW 4 6 2 3 - - 0.0
30/09:30pm 7.3 6.4 6.1 92 0.6 CALM 0 0 0 0 - - 0.0
30/09:00pm 7.8 6.5 6.1 89 0.8 S 2 4 1 2 - - 0.0
30/08:30pm 8.6 7.1 6.7 88 0.9 SSE 4 6 2 3 - - 0.0
30/08:00pm 8.7 7.4 6.0 83 1.3 SSE 2 4 1 2 - - 0.0
30/07:30pm 10.1 8.3 7.2 82 1.4 SE 6 9 3 5 - - 0.0
30/07:00pm 10.2 8.3 7.4 83 1.4 SE 7 11 4 6 - - 0.0
30/06:30pm 9.9 8.1 7.2 83 1.3 SE 6 9 3 5 - - 0.0
30/06:00pm 10.3 8.7 6.5 77 1.8 SE 4 7 2 4 - - 0.0
30/05:30pm 11.6 9.5 6.5 71 2.5 SE 7 9 4 5 - - 0.0
30/05:00pm 12.8 10.8 7.0 68 2.8 SE 7 15 4 8 - - 0.0
30/04:30pm 13.6 11.1 6.7 63 3.4 SE 9 13 5 7 - - 0.0
30/04:00pm 13.9 11.9 7.0 63 3.4 SSE 7 11 4 6 - - 0.0
30/03:30pm 14.4 11.9 6.5 59 3.9 SE 9 15 5 8 - - 0.0
30/03:00pm 16.1 13.4 5.7 50 5.1 SSE 9 17 5 9 - - 0.0
30/02:30pm 15.9 13.4 4.6 47 5.4 SSE 7 13 4 7 - - 0.0
30/02:00pm 14.6 11.9 3.7 48 5.1 SW 7 13 4 7 - - 0.0
30/01:30pm 14.9 12.1 3.4 46 5.3 SW 7 19 4 10 - - 0.0
30/01:00pm 15.0 12.5 5.0 51 4.8 SSW 7 13 4 7 - - 0.0
30/12:30pm 15.4 12.9 4.8 49 5.1 WSW 7 15 4 8 - - 0.0
30/12:00pm 14.8 12.4 4.5 50 4.9 SSW 6 13 3 7 - - 0.0
30/11:30am 14.0 11.5 3.8 50 4.7 SW 6 11 3 6 - - 0.0
30/11:00am 13.7 11.2 4.0 52 4.5 W 6 13 3 7 - - 0.0
30/10:30am 13.0 10.5 4.9 58 3.8 SW 7 13 4 7 - - 0.0
30/10:00am 12.1 9.3 5.0 62 3.3 WSW 9 17 5 9 - - 0.0
30/09:30am 11.4 8.9 4.8 64 3.1 SW 7 15 4 8 - - 0.0
30/09:00am 10.3 7.8 3.6 63 3.0 SW 6 11 3 6 - - 0.0
30/08:30am 9.1 6.6 3.9 70 2.3 W 6 9 3 5 - - 0.0
30/08:00am 8.2 5.8 4.2 76 1.8 WNW 6 7 3 4 - - 0.0
30/07:30am 6.2 3.7 3.7 84 1.1 NW 6 7 3 4 - - 0.0
30/07:00am 3.5 1.3 3.5 100 0.0 NNW 4 6 2 3 - - 0.0
30/06:30am 2.1 -0.4 1.8 98 0.1 NW 4 6 2 3 - - 0.0
30/06:00am 2.2 -0.2 1.9 98 0.1 NNW 4 6 2 3 - - 0.0
30/05:30am 1.7 -0.9 1.1 96 0.2 NW 4 6 2 3 - - 0.0
30/05:00am 2.4 -0.4 2.0 97 0.2 NW 6 6 3 3 - - 0.0
30/04:30am 2.5 0.1 1.9 96 0.2 NW 4 6 2 3 - - 0.0
30/04:00am 2.6 0.2 1.9 95 0.3 NW 4 6 2 3 - - 0.0
30/03:30am 2.9 0.4 1.7 92 0.5 WNW 4 6 2 3 - - 0.0
30/03:00am 3.8 1.5 2.5 91 0.5 WNW 4 6 2 3 - - 0.0
30/02:30am 3.9 1.2 2.6 91 0.5 WNW 6 7 3 4 - - 0.0
30/02:00am 3.6 1.2 2.4 92 0.5 WNW 4 6 2 3 - - 0.0
30/01:30am 3.9 1.6 2.9 93 0.4 WNW 4 6 2 3 - - 0.0
30/01:00am 4.1 1.8 2.8 91 0.5 WNW 4 6 2 3 - - 0.0
30/12:30am 4.5 2.2 2.7 88 0.7 WNW 4 6 2 3 - - 0.0
30/12:00am 5.4 3.2 3.3 86 0.9 WNW 4 6 2 3 - - 0.0
 
Date/Time
EST
Tmp

°C
App
Tmp
°C
Dew
Point
°C
Rel
Hum
%
Delta-T

°C
Wind Press
QNH
hPa
Press
MSL
hPa
Rain
since
9 am
mm
Dir
 
Spd
km/h
Gust
km/h
Spd
kts
Gust
kts
29/11:30pm 5.3 3.1 3.3 87 0.8 WNW 4 6 2 3 - - 0.0
29/11:00pm 5.6 3.4 3.4 86 0.9 W 4 6 2 3 - - 0.0
29/10:30pm 6.3 4.1 3.6 83 1.2 WNW 4 6 2 3 - - 0.0
29/10:00pm 6.7 4.6 3.7 81 1.3 WNW 4 6 2 3 - - 0.0
29/09:30pm 7.9 5.8 3.9 76 1.8 WNW 4 6 2 3 - - 0.0
29/09:00pm 8.9 6.5 4.1 72 2.1 WNW 6 9 3 5 - - 0.0
29/08:30pm 10.4 8.0 4.1 65 2.8 WSW 6 11 3 6 - - 0.0
29/08:00pm 10.8 8.7 6.0 72 2.3 SW 6 11 3 6 - - 0.0
29/07:30pm 8.8 8.2 7.3 90 0.7 CALM 0 0 0 0 - - 0.0
29/07:00pm 9.6 8.4 7.9 89 0.8 NE 4 6 2 3 - - 0.0
29/06:30pm 10.1 8.5 8.0 87 1.0 ENE 6 7 3 4 - - 0.0
29/06:00pm 11.1 9.4 7.6 79 1.7 E 6 7 3 4 - - 0.0
29/05:30pm 13.4 12.0 7.4 67 3.0 E 4 7 2 4 - - 0.0
29/05:00pm 16.0 13.4 3.1 42 6.0 SW 6 11 3 6 - - 0.0
29/04:30pm 17.6 15.7 6.5 48 5.6 NW 6 7 3 4 - - 0.0
29/04:00pm 17.9 15.7 6.4 47 5.8 WNW 7 9 4 5 - - 0.0
29/03:30pm 17.6 15.4 5.5 45 6.0 SW 6 9 3 5 - - 0.0
29/03:00pm 18.7 16.8 6.9 46 6.0 NW 6 11 3 6 - - 0.0
29/02:30pm 18.1 16.6 6.9 48 5.7 WSW 4 11 2 6 - - 0.0
29/02:00pm 17.0 14.9 5.9 48 5.5 WNW 6 11 3 6 - - 0.0
29/01:30pm 17.0 14.3 5.6 47 5.6 WSW 9 20 5 11 - - 0.0
29/01:00pm 17.0 14.2 6.8 51 5.1 W 11 19 6 10 - - 0.0
29/12:30pm 16.8 14.3 6.6 51 5.1 WNW 9 17 5 9 - - 0.0
29/12:00pm 15.5 12.2 6.2 54 4.6 WNW 13 19 7 10 - - 0.0
29/11:30am 15.4 12.7 7.2 58 4.1 W 11 17 6 9 - - 0.0
29/11:00am 14.6 12.0 5.9 56 4.2 NNW 9 15 5 8 - - 0.0
29/10:30am 14.6 12.3 5.9 56 4.2 NNW 7 11 4 6 - - 0.0
29/10:00am 13.7 12.3 7.2 65 3.2 NNW 4 9 2 5 - - 0.0
29/09:30am 12.2 10.4 7.3 72 2.4 NNW 6 9 3 5 - - 0.0
29/09:00am 11.2 9.4 7.3 77 1.9 WNW 6 9 3 5 - - 0.0
29/08:30am 10.5 8.5 7.2 80 1.6 NW 7 9 4 5 - - 0.0
29/08:00am 9.2 7.3 6.6 84 1.2 NNW 6 9 3 5 - - 0.0
29/07:30am 8.0 6.2 7.1 94 0.4 NW 6 9 3 5 - - 0.0
29/07:00am 5.9 3.8 5.9 100 0.0 NW 6 7 3 4 - - 0.0
29/06:30am 4.8 2.5 4.8 100 0.0 NW 6 6 3 3 - - 0.0
29/06:00am 4.8 2.9 4.7 99 0.0 NW 4 6 2 3 - - 0.0
29/05:30am 5.4 3.6 5.4 100 0.0 NNW 4 6 2 3 - - 0.0
29/05:00am 5.2 3.4 5.2 100 0.0 NNW 4 6 2 3 - - 0.0
29/04:30am 4.9 3.3 4.6 98 0.1 NW 2 4 1 2 - - 0.0
29/04:00am 5.4 3.6 5.3 99 0.0 NW 4 6 2 3 - - 0.0
29/03:30am 5.6 3.8 5.3 98 0.1 NNW 4 6 2 3 - - 0.0
29/03:00am 6.0 4.2 5.6 97 0.2 NW 4 6 2 3 - - 0.0
29/02:30am 6.4 4.3 6.0 97 0.2 NW 6 6 3 3 - - 0.0
29/02:00am 6.2 4.5 5.9 98 0.1 NW 4 6 2 3 - - 0.0
29/01:30am 6.4 4.7 5.8 96 0.3 NW 4 6 2 3 - - 0.0
29/01:00am 6.8 5.1 6.1 95 0.3 NW 4 6 2 3 - - 0.0
29/12:30am 7.3 5.4 6.6 95 0.3 NW 6 6 3 3 - - 0.0
29/12:00am 7.2 5.6 6.5 95 0.3 NW 4 6 2 3 - - 0.0
 
Date/Time
EST
Tmp

°C
App
Tmp
°C
Dew
Point
°C
Rel
Hum
%
Delta-T

°C
Wind Press
QNH
hPa
Press
MSL
hPa
Rain
since
9 am
mm
Dir
 
Spd
km/h
Gust
km/h
Spd
kts
Gust
kts
28/11:30pm 7.5 6.0 6.6 94 0.4 NW 4 6 2 3 - - 0.0
28/11:00pm 8.0 7.3 6.8 92 0.6 CALM 0 0 0 0 - - 0.0
28/10:30pm 9.2 7.9 7.5 89 0.8 NNW 4 6 2 3 - - 0.0
28/10:00pm 9.7 8.6 8.6 93 0.5 NW 4 7 2 4 - - 0.0
28/09:30pm 9.2 8.7 7.8 91 0.7 CALM 0 0 0 0 - - 0.0
28/09:00pm 10.3 10.0 8.7 90 0.8 CALM 0 2 0 1 - - 0.0
28/08:30pm 10.8 10.7 9.6 92 0.6 CALM 0 0 0 0 - - 0.0
28/08:00pm 10.5 9.6 9.1 91 0.7 ENE 4 6 2 3 - - 0.0
28/07:30pm 10.3 9.5 8.1 86 1.1 ENE 2 6 1 3 - - 0.0
28/07:00pm 11.2 10.2 8.9 86 1.2 E 4 7 2 4 - - 0.0
28/06:30pm 10.3 9.0 7.7 84 1.3 ENE 4 4 2 2 - - 0.0
28/06:00pm 10.9 10.3 7.4 79 1.7 CALM 0 0 0 0 - - 0.0
28/05:30pm 13.3 13.0 8.8 74 2.3 CALM 0 0 0 0 - - 0.0
28/05:00pm 14.1 13.9 8.9 71 2.7 CALM 0 0 0 0 - - 0.0
28/04:30pm 14.7 14.1 8.9 68 3.0 WSW 2 4 1 2 - - 0.0
28/04:00pm 15.3 14.2 7.1 58 4.1 WSW 2 6 1 3 - - 0.0
28/03:30pm 15.8 14.2 6.3 53 4.7 WSW 4 7 2 4 - - 0.0
28/03:00pm 16.4 14.3 6.8 53 4.8 WSW 7 13 4 7 - - 0.0
28/02:30pm 16.1 13.6 6.5 53 4.8 W 9 19 5 10 - - 0.0
28/02:00pm 16.7 13.7 5.9 49 5.3 WSW 11 15 6 8 - - 0.0
28/01:30pm 17.5 14.9 6.1 47 5.7 WSW 9 19 5 10 - - 0.0
28/01:00pm 17.1 14.7 7.2 52 5.0 SW 9 17 5 9 - - 0.0
28/12:30pm 16.6 14.1 6.4 51 5.1 WSW 9 24 5 13 - - 0.0
28/12:00pm 16.5 13.6 6.3 51 5.1 W 11 19 6 10 - - 0.0
28/11:30am 15.2 12.2 6.0 54 4.5 W 11 17 6 9 - - 0.0
28/11:00am 14.3 9.9 4.9 53 4.5 W 17 28 9 15 - - 0.0
28/10:30am 15.3 12.6 7.3 59 4.0 W 11 22 6 12 - - 0.0
28/10:00am 14.0 9.8 5.9 58 3.9 WNW 17 30 9 16 - - 0.0
28/09:30am 13.0 9.4 6.8 66 3.0 WNW 15 24 8 13 - - 0.0
28/09:00am 12.3 9.1 7.0 70 2.6 WNW 13 22 7 12 - - 0.8
28/08:30am 11.2 8.3 6.3 72 2.3 W 11 22 6 12 - - 0.8
28/08:00am 9.6 6.1 5.6 76 1.9 WNW 13 24 7 13 - - 0.8
28/07:30am 8.8 5.3 5.4 79 1.6 WNW 13 22 7 12 - - 0.8
28/07:00am 7.6 4.4 5.2 85 1.1 WNW 11 20 6 11 - - 0.8
28/06:30am 7.0 3.7 4.8 86 1.0 NW 11 17 6 9 - - 0.8
28/06:00am 7.2 4.3 4.9 85 1.0 WNW 9 17 5 9 - - 0.8
28/05:30am 7.6 4.4 4.9 83 1.2 WNW 11 17 6 9 - - 0.8
28/05:00am 7.5 4.7 5.0 84 1.1 WNW 9 17 5 9 - - 0.8
28/04:30am 7.8 4.2 5.1 83 1.2 WNW 13 20 7 11 - - 0.8
28/04:00am 7.8 4.6 5.1 83 1.2 WNW 11 19 6 10 - - 0.8
28/03:30am 7.7 4.9 5.0 83 1.2 NW 9 17 5 9 - - 0.8
28/03:00am 7.9 4.7 5.2 83 1.2 WNW 11 17 6 9 - - 0.8
28/02:30am 8.0 5.2 5.3 83 1.2 WNW 9 17 5 9 - - 0.8
28/02:00am 8.2 5.5 5.5 83 1.2 WNW 9 17 5 9 - - 0.8
28/01:30am 8.4 5.7 5.5 82 1.3 WNW 9 17 5 9 - - 0.8
28/01:00am 8.6 5.9 5.7 82 1.3 WNW 9 15 5 8 - - 0.8
28/12:30am 9.1 6.1 6.2 82 1.4 WNW 11 17 6 9 - - 0.8
28/12:00am 9.3 6.4 6.6 83 1.3 WNW 11 17 6 9 - - 0.8

Latest Capital City Observations: Canberra | Sydney | Melbourne | Brisbane | Adelaide | Perth | Hobart | Darwin

Other Formats:

Comma delimited format used in spreadsheet applications
http://www.bom.gov.au/fwo/IDN60901/IDN60901.95774.axf

JavaScript Object Notation format (JSON) in row-major order
http://www.bom.gov.au/fwo/IDN60901/IDN60901.95774.json